Time;durP1;ratioP1;P1;durP2;ratioP2;P2;SDS_P1;SDS_P2;PMS_P1;PMS_P2;Temp;Humidity;BMP_temperature;BMP_pressure;BME280_temperature;BME280_humidity;BME280_pressure;Samples;Min_cycle;Max_cycle;Signal;HPM_P1;HPM_P2
2023/05/30 00:00:55;;;;;;;;;;;18.10;32.80;;;17.40;32.19;101860.25;12260094;19;19911;-86
2023/05/30 00:04:57;;;;;;;;;;;18.10;32.80;;;17.23;32.14;101859.56;12258933;19;19954;-85
2023/05/30 00:09:00;;;;;;;;;;;18.00;32.80;;;17.09;32.11;101848.19;12257491;19;19911;-85
2023/05/30 00:13:02;;;;;;;;;;;18.00;32.80;;;17.05;32.24;101858.13;12259821;19;19982;-86
2023/05/30 00:17:05;;;;;;;;;;;17.90;32.80;;;16.89;32.40;101831.88;12259168;19;19907;-86
2023/05/30 00:21:07;;;;;;;;;;;17.80;32.90;;;16.96;32.25;101869.28;12260254;19;19925;-86
2023/05/30 00:25:09;;;;;;;;;;;17.70;33.00;;;16.75;32.50;101858.25;12259041;19;20398;-86
2023/05/30 00:29:10;;;;;;;;;;;17.60;33.00;;;16.62;32.33;101852.88;12263568;19;19911;-86
2023/05/30 00:33:14;;;;;;;;;;;17.50;33.00;;;16.65;32.50;101883.50;12261833;19;19978;-86
2023/05/30 00:37:16;;;;;;;;;;;17.40;33.00;;;16.48;32.48;101861.66;12249366;19;19923;-86
2023/05/30 00:41:18;;;;;;;;;;;17.30;33.00;;;16.51;32.46;101879.94;12252486;19;20253;-85
2023/05/30 00:45:20;;;;;;;;;;;17.20;33.10;;;16.44;32.52;101869.84;12252594;19;19918;-85
2023/05/30 00:49:22;;;;;;;;;;;17.20;33.20;;;16.36;32.63;101883.50;12254041;19;19907;-86
2023/05/30 00:53:23;;;;;;;;;;;17.20;33.20;;;16.31;32.56;101886.44;12253130;19;19910;-86
2023/05/30 00:57:25;;;;;;;;;;;17.10;33.30;;;16.10;32.46;101866.66;12247568;19;19994;-85
2023/05/30 01:01:27;;;;;;;;;;;17.00;33.20;;;16.03;32.57;101865.31;12250719;19;20432;-86
2023/05/30 01:05:29;;;;;;;;;;;16.90;33.20;;;15.80;32.49;101841.19;12248904;19;20378;-85
2023/05/30 01:09:31;;;;;;;;;;;16.80;33.30;;;15.86;32.85;101869.78;12251145;19;19919;-86
2023/05/30 01:13:52;;;;;;;;;;;16.70;33.30;;;15.76;32.77;101867.78;12252622;19;19915;-85
2023/05/30 01:18:23;;;;;;;;;;;16.70;33.30;;;15.69;32.86;101875.22;12259895;19;19947;-86
2023/05/30 01:22:51;;;;;;;;;;;16.60;33.40;;;15.67;32.79;101885.78;12264838;19;19918;-86
2023/05/30 01:27:24;;;;;;;;;;;16.50;33.50;;;15.44;32.86;101873.09;12254897;19;19982;-85
2023/05/30 01:31:26;;;;;;;;;;;16.40;33.40;;;15.35;32.84;101879.75;12262571;19;20034;-85
2023/05/30 01:35:28;;;;;;;;;;;16.20;33.50;;;15.27;33.17;101880.19;12257835;19;19921;-85
2023/05/30 01:39:34;;;;;;;;;;;16.10;33.50;;;15.22;33.06;101894.53;12262877;19;19918;-85
2023/05/30 01:44:01;;;;;;;;;;;16.10;33.70;;;15.12;32.95;101893.34;12257243;19;19933;-85
2023/05/30 01:48:31;;;;;;;;;;;15.90;33.60;;;15.02;32.95;101880.72;12260725;19;19929;-86
2023/05/30 01:52:38;;;;;;;;;;;15.90;33.70;;;14.94;33.07;101882.91;12260949;19;19931;-85
2023/05/30 01:56:41;;;;;;;;;;;15.80;33.70;;;14.91;33.14;101888.34;12257060;19;20326;-85
2023/05/30 02:00:43;;;;;;;;;;;15.80;33.70;;;14.85;33.18;101895.72;12261834;19;19922;-85
2023/05/30 02:04:45;;;;;;;;;;;15.60;33.80;;;14.51;33.31;101839.66;12256124;19;20109;-85
2023/05/30 02:08:47;;;;;;;;;;;15.60;33.80;;;14.67;33.28;101874.75;12261458;19;19936;-86
2023/05/30 02:12:50;;;;;;;;;;;15.60;33.90;;;14.72;33.46;101879.75;12260515;19;19929;-86
2023/05/30 02:16:51;;;;;;;;;;;15.60;33.90;;;14.64;33.38;101871.44;12259443;19;19930;-85
2023/05/30 02:20:56;;;;;;;;;;;15.50;33.90;;;14.69;33.43;101882.53;12262613;19;19934;-85
2023/05/30 02:24:58;;;;;;;;;;;15.50;34.00;;;14.63;33.45;101875.81;12256498;19;19927;-86
2023/05/30 02:28:59;;;;;;;;;;;15.50;34.00;;;14.46;33.62;101849.56;12258928;19;20298;-86
2023/05/30 02:33:01;;;;;;;;;;;15.50;34.10;;;14.55;33.69;101868.34;12261618;19;20315;-85
2023/05/30 02:37:03;;;;;;;;;;;15.50;34.10;;;14.56;33.62;101869.22;12256813;19;20397;-85
2023/05/30 02:41:04;;;;;;;;;;;15.50;34.10;;;14.37;33.55;101850.94;12262885;19;19923;-86
2023/05/30 02:45:07;;;;;;;;;;;15.50;34.30;;;14.35;33.66;101855.41;12257710;19;19931;-85
2023/05/30 02:49:11;;;;;;;;;;;15.40;34.40;;;14.32;33.79;101873.97;12260216;19;19919;-85
2023/05/30 02:53:13;;;;;;;;;;;15.30;34.30;;;14.09;33.74;101859.38;12260203;19;19919;-85
2023/05/30 02:57:20;;;;;;;;;;;15.20;34.40;;;14.23;33.78;101895.44;12250822;19;20377;-86
2023/05/30 03:01:33;;;;;;;;;;;15.20;34.30;;;14.21;33.87;101899.97;12254337;19;19923;-85
2023/05/30 03:05:36;;;;;;;;;;;15.10;34.20;;;14.21;33.83;101894.69;12251275;19;19911;-85
2023/05/30 03:09:40;;;;;;;;;;;15.10;34.30;;;14.10;33.94;101882.97;12250716;19;20297;-85
2023/05/30 03:13:43;;;;;;;;;;;15.10;34.30;;;14.21;33.96;101919.19;12246516;19;19915;-85
2023/05/30 03:17:44;;;;;;;;;;;15.10;34.40;;;14.15;33.97;101922.13;12249137;19;20329;-85
2023/05/30 03:21:49;;;;;;;;;;;15.10;34.40;;;13.86;33.96;101882.44;12251838;19;19911;-85
2023/05/30 03:25:53;;;;;;;;;;;15.00;34.40;;;13.88;34.01;101900.72;12249259;19;19927;-85
2023/05/30 03:29:56;;;;;;;;;;;15.00;34.40;;;13.58;34.01;101869.81;12251284;19;20553;-85
2023/05/30 03:33:58;;;;;;;;;;;14.90;34.50;;;13.73;34.14;101924.19;12250181;19;19922;-85
2023/05/30 03:37:59;;;;;;;;;;;14.80;34.40;;;13.66;34.17;101900.94;12251473;19;19930;-85
2023/05/30 03:42:01;;;;;;;;;;;14.70;34.40;;;13.47;34.29;101880.88;12251897;19;19950;-85
2023/05/30 03:46:03;;;;;;;;;;;14.70;34.50;;;13.41;34.31;101873.28;12248231;19;19934;-86
2023/05/30 03:50:05;;;;;;;;;;;14.70;34.50;;;13.70;34.29;101926.13;12250679;19;20470;-85
2023/05/30 03:54:07;;;;;;;;;;;14.70;34.60;;;13.65;34.31;101928.97;12066264;19;3511517;-85
2023/05/30 03:58:08;;;;;;;;;;;14.60;34.60;;;13.42;34.27;101895.09;12251735;19;19918;-86
2023/05/30 04:02:10;;;;;;;;;;;14.60;34.70;;;13.61;34.36;101932.69;12251419;19;20266;-85
2023/05/30 04:06:11;;;;;;;;;;;14.60;34.70;;;13.56;34.46;101925.97;12255290;19;19939;-85
2023/05/30 04:10:14;;;;;;;;;;;14.60;34.70;;;13.51;34.54;101920.91;12254258;19;19930;-85
2023/05/30 04:14:15;;;;;;;;;;;14.60;34.80;;;13.58;34.55;101935.44;12255274;19;19918;-86
2023/05/30 04:18:17;;;;;;;;;;;14.60;34.80;;;13.49;34.58;101914.88;12256134;19;19918;-86
2023/05/30 04:22:19;;;;;;;;;;;14.60;34.90;;;13.60;34.63;101936.22;12255264;19;19922;-85
2023/05/30 04:26:22;;;;;;;;;;;14.60;34.90;;;13.53;34.80;101926.94;12247618;19;19948;-85
2023/05/30 04:30:24;;;;;;;;;;;14.60;35.00;;;13.44;34.64;101915.09;12249411;19;19931;-86
2023/05/30 04:34:26;;;;;;;;;;;14.70;35.30;;;13.68;34.75;101956.84;12251921;19;20278;-85
2023/05/30 04:38:28;;;;;;;;;;;14.60;35.30;;;13.69;34.69;101954.16;12259590;19;19922;-86
2023/05/30 04:42:33;;;;;;;;;;;14.70;35.20;;;13.67;34.76;101950.75;12258307;19;19930;-86
2023/05/30 04:46:36;;;;;;;;;;;14.70;35.40;;;13.68;34.97;101955.06;12256794;19;19914;-86
2023/05/30 04:50:38;;;;;;;;;;;14.70;35.50;;;13.77;34.88;101961.66;12260208;19;19911;-86
2023/05/30 04:54:41;;;;;;;;;;;14.80;35.60;;;13.85;34.91;101956.00;12275571;19;19915;-86
2023/05/30 04:58:48;;;;;;;;;;;14.80;36.00;;;13.90;35.15;101954.84;12280569;19;19914;-86
2023/05/30 05:02:51;;;;;;;;;;;15.00;35.90;;;14.07;35.13;101961.91;12278580;19;19943;-86
2023/05/30 05:06:52;;;;;;;;;;;15.10;36.30;;;14.21;35.25;101957.75;12278367;19;19911;-86
2023/05/30 05:10:53;;;;;;;;;;;15.20;36.20;;;14.42;35.23;101969.81;12280676;19;20260;-86
2023/05/30 05:14:57;;;;;;;;;;;15.40;36.20;;;14.28;35.25;101919.72;12278996;19;20316;-86
2023/05/30 05:18:58;;;;;;;;;;;15.60;37.50;;;14.73;35.37;101968.22;12274799;19;20249;-85
2023/05/30 05:23:00;;;;;;;;;;;15.80;36.30;;;14.71;35.32;101947.25;12276685;19;19915;-86
2023/05/30 05:27:01;;;;;;;;;;;15.90;36.10;;;14.77;35.44;101933.81;12272940;19;19943;-88
2023/05/30 05:31:03;;;;;;;;;;;16.10;36.50;;;14.86;35.45;101931.59;12268689;19;19936;-85
2023/05/30 05:35:07;;;;;;;;;;;16.30;36.20;;;14.95;35.38;101921.41;12273433;19;19971;-85
2023/05/30 05:39:09;;;;;;;;;;;16.40;35.90;;;15.48;35.74;101986.06;12271893;19;20259;-84
2023/05/30 05:43:10;;;;;;;;;;;16.60;35.90;;;15.65;35.88;101974.56;12273996;19;19911;-85
2023/05/30 05:47:12;;;;;;;;;;;16.80;36.30;;;15.88;35.63;101972.47;12268863;19;19911;-85
2023/05/30 05:51:13;;;;;;;;;;;17.10;36.70;;;16.06;35.90;101959.97;12275018;19;19911;-85
2023/05/30 05:55:15;;;;;;;;;;;17.30;36.30;;;16.38;35.92;101977.38;12274686;19;19911;-85
2023/05/30 05:59:17;;;;;;;;;;;17.60;35.90;;;16.39;35.71;101943.97;12274969;19;20265;-85
2023/05/30 06:03:18;;;;;;;;;;;17.80;35.80;;;16.79;35.84;101989.88;12271383;19;19925;-85
2023/05/30 06:07:19;;;;;;;;;;;18.00;35.70;;;17.02;35.88;101979.72;12258001;19;20266;-85
2023/05/30 06:11:21;;;;;;;;;;;18.30;35.90;;;17.16;35.87;101969.13;12252978;19;20242;-85
2023/05/30 06:15:23;;;;;;;;;;;18.60;35.90;;;17.36;35.92;101974.94;12257027;19;19932;-86
2023/05/30 06:19:25;;;;;;;;;;;18.70;35.60;;;17.66;35.78;101991.47;12256698;19;20253;-86
2023/05/30 06:23:27;;;;;;;;;;;18.90;35.60;;;17.85;35.74;101982.38;12257472;19;20522;-85
2023/05/30 06:27:28;;;;;;;;;;;19.20;35.50;;;17.99;35.82;101984.94;12252654;19;19942;-86
2023/05/30 06:31:30;;;;;;;;;;;19.40;35.50;;;18.09;35.61;101974.59;12256770;19;19918;-86
2023/05/30 06:35:31;;;;;;;;;;;19.50;35.30;;;18.20;35.70;101971.22;12252512;19;19923;-84
2023/05/30 06:39:33;;;;;;;;;;;19.70;35.10;;;18.37;35.59;101978.88;12256267;19;19927;-86
2023/05/30 06:43:34;;;;;;;;;;;19.80;35.00;;;18.47;35.54;101982.59;12255114;19;19930;-85
2023/05/30 06:47:36;;;;;;;;;;;19.90;34.80;;;18.49;35.83;101987.75;12252693;19;19915;-85
2023/05/30 06:51:38;;;;;;;;;;;20.00;34.70;;;18.47;35.58;101969.38;12259851;19;20238;-84
2023/05/30 06:55:40;;;;;;;;;;;20.00;34.60;;;18.71;35.73;102005.66;12250952;19;19922;-85
2023/05/30 06:59:42;;;;;;;;;;;20.10;34.60;;;18.65;35.66;101988.41;12260879;19;19911;-85
2023/05/30 07:03:44;;;;;;;;;;;20.20;34.40;;;18.83;35.45;102017.25;12252196;19;19918;-86
2023/05/30 07:07:46;;;;;;;;;;;20.20;34.50;;;18.83;35.30;102001.34;12247703;19;19922;-85
2023/05/30 07:11:49;;;;;;;;;;;20.20;34.40;;;18.86;35.61;101996.69;12254284;19;19921;-86
2023/05/30 07:15:51;;;;;;;;;;;20.30;34.40;;;19.09;35.45;102010.09;12249092;19;20389;-86
2023/05/30 07:19:53;;;;;;;;;;;20.40;34.40;;;19.23;35.61;102016.13;12253373;19;19922;-86
2023/05/30 07:23:55;;;;;;;;;;;20.50;34.40;;;19.21;35.49;101996.84;12250455;19;19943;-85
2023/05/30 07:27:56;;;;;;;;;;;20.60;34.20;;;19.45;35.26;102010.13;12250097;19;19924;-85
2023/05/30 07:31:58;;;;;;;;;;;20.80;34.20;;;19.43;35.21;101995.28;12251252;19;19919;-86
2023/05/30 07:35:59;;;;;;;;;;;20.90;34.10;;;19.52;35.22;101978.72;12245145;19;20333;-85
2023/05/30 07:40:07;;;;;;;;;;;21.10;34.10;;;19.98;35.06;102024.88;12251193;19;20383;-85
2023/05/30 07:44:08;;;;;;;;;;;21.20;33.90;;;19.98;35.00;101998.38;12249490;19;19923;-86
2023/05/30 07:48:10;;;;;;;;;;;21.40;34.00;;;20.26;35.14;102018.38;12248849;19;20008;-86
2023/05/30 07:52:11;;;;;;;;;;;21.50;33.80;;;20.21;35.13;102005.44;12249300;19;20382;-85
2023/05/30 07:56:13;;;;;;;;;;;21.60;33.40;;;20.19;35.20;101993.25;12250929;19;20256;-85
2023/05/30 08:00:15;;;;;;;;;;;21.70;33.30;;;20.46;35.21;102016.84;12254015;19;19975;-86
2023/05/30 08:04:18;;;;;;;;;;;21.80;33.50;;;20.65;35.22;102027.75;12251176;19;19990;-87
2023/05/30 08:08:19;;;;;;;;;;;21.90;33.60;;;20.75;35.28;102009.31;12258473;19;19919;-86
2023/05/30 08:12:23;;;;;;;;;;;22.00;33.50;;;21.02;35.08;102027.56;12258541;19;19930;-86
2023/05/30 08:16:26;;;;;;;;;;;22.20;33.50;;;21.15;34.77;102014.16;12252417;19;20366;-85
2023/05/30 08:20:28;;;;;;;;;;;22.40;33.70;;;21.16;34.62;102002.56;12253580;19;19925;-86
2023/05/30 08:24:30;;;;;;;;;;;22.60;33.00;;;21.25;34.47;102020.41;12254317;19;19922;-86
2023/05/30 08:28:32;;;;;;;;;;;22.60;33.20;;;21.31;34.60;102016.44;12251522;19;19919;-86
2023/05/30 08:32:33;;;;;;;;;;;22.60;32.70;;;21.47;34.49;102024.91;12258837;19;19922;-86
2023/05/30 08:36:35;;;;;;;;;;;22.70;32.80;;;21.57;34.37;102015.19;12255017;19;20418;-86
2023/05/30 08:40:42;;;;;;;;;;;22.80;32.90;;;21.70;34.48;102015.03;12258142;19;19927;-87
2023/05/30 08:44:44;;;;;;;;;;;22.90;33.00;;;21.84;34.30;102024.53;12252921;19;20598;-85
2023/05/30 08:48:47;;;;;;;;;;;23.10;32.40;;;22.02;34.38;102024.84;12251798;19;20562;-86
2023/05/30 08:52:52;;;;;;;;;;;23.20;32.40;;;22.11;34.47;102008.09;12255415;19;19911;-86
2023/05/30 08:57:17;;;;;;;;;;;23.30;32.70;;;22.30;34.28;102018.94;12247116;19;19923;-86
2023/05/30 09:01:19;;;;;;;;;;;23.50;32.40;;;22.35;34.16;101999.06;12255371;19;19919;-86
2023/05/30 09:05:21;;;;;;;;;;;23.60;32.70;;;22.52;34.21;102011.75;12250754;19;19949;-86
2023/05/30 09:09:23;;;;;;;;;;;23.80;32.50;;;22.70;34.35;102020.84;12254817;19;19919;-86
2023/05/30 09:13:25;;;;;;;;;;;23.90;31.50;;;22.80;33.71;102025.38;12252602;19;19927;-85
2023/05/30 09:17:27;;;;;;;;;;;24.00;31.70;;;22.79;33.93;102015.69;12251858;19;19929;-85
2023/05/30 09:21:31;;;;;;;;;;;24.10;31.40;;;22.87;33.81;102021.19;12252621;19;19926;-86
2023/05/30 09:25:43;;;;;;;;;;;24.10;32.10;;;22.88;33.65;102006.91;12253376;19;20303;-87
2023/05/30 09:29:45;;;;;;;;;;;24.20;32.10;;;22.94;33.08;102028.53;12254654;19;19911;-87
2023/05/30 09:33:51;;;;;;;;;;;24.20;31.60;;;23.01;33.53;102033.34;12253218;19;19919;-87
2023/05/30 09:37:52;;;;;;;;;;;24.20;31.70;;;23.14;33.25;102032.16;12254041;19;19922;-86
2023/05/30 09:41:57;;;;;;;;;;;24.30;31.70;;;23.30;33.49;102028.13;12261201;19;20631;-85
2023/05/30 09:46:06;;;;;;;;;;;24.50;32.20;;;23.49;33.41;102033.50;12258198;19;20306;-84
2023/05/30 09:50:09;;;;;;;;;;;24.60;32.20;;;23.38;33.54;101999.78;12257498;19;19922;-84
2023/05/30 09:54:12;;;;;;;;;;;24.70;31.20;;;23.66;33.04;102031.16;12252271;19;19928;-85
2023/05/30 09:58:20;;;;;;;;;;;24.80;30.40;;;23.77;32.97;102036.41;12255202;19;19914;-84
2023/05/30 10:02:22;;;;;;;;;;;24.90;31.30;;;23.82;32.96;102034.16;12254591;19;20341;-84
2023/05/30 10:06:24;;;;;;;;;;;24.90;29.40;;;23.68;32.78;102016.69;12253605;19;19941;-85
2023/05/30 10:10:26;;;;;;;;;;;25.00;30.50;;;23.58;32.75;101998.03;12257073;19;20983;-85
2023/05/30 10:14:27;;;;;;;;;;;24.90;30.90;;;23.74;32.57;102012.69;12255325;19;19936;-85
2023/05/30 10:18:31;;;;;;;;;;;25.00;30.60;;;23.79;32.91;102015.75;12254666;19;20337;-85
2023/05/30 10:22:40;;;;;;;;;;;24.90;30.80;;;23.89;32.55;102019.25;12255926;19;20322;-84
2023/05/30 10:26:50;;;;;;;;;;;25.00;30.90;;;24.02;32.74;102025.16;12248821;19;20272;-86
2023/05/30 10:30:52;;;;;;;;;;;25.10;29.70;;;23.79;32.10;101989.94;12256727;19;19919;-85
2023/05/30 10:35:07;;;;;;;;;;;25.10;31.00;;;24.00;32.15;102016.44;12256091;19;19926;-85
2023/05/30 10:39:43;;;;;;;;;;;25.10;30.40;;;24.13;32.43;102012.66;12253495;19;20260;-86
2023/05/30 10:44:23;;;;;;;;;;;25.20;30.50;;;24.20;31.99;102014.63;12251027;19;19998;-85
2023/05/30 10:48:33;;;;;;;;;;;25.20;30.70;;;24.30;32.35;102011.91;12248328;19;19922;-84
2023/05/30 10:52:34;;;;;;;;;;;25.40;30.60;;;24.43;31.96;102012.47;12256530;19;19927;-84
2023/05/30 10:56:41;;;;;;;;;;;25.40;30.40;;;24.56;32.21;102006.84;12255870;19;19953;-84
2023/05/30 11:00:42;;;;;;;;;;;25.50;30.80;;;24.62;32.26;102000.06;12259209;19;19940;-85
2023/05/30 11:04:48;;;;;;;;;;;25.60;29.80;;;24.70;31.72;102009.03;12258601;19;19921;-84
2023/05/30 11:09:08;;;;;;;;;;;25.70;30.10;;;24.67;31.73;101990.63;12251390;19;20338;-86
2023/05/30 11:13:10;;;;;;;;;;;25.70;29.80;;;24.85;31.98;102009.41;12256444;19;19983;-85
2023/05/30 11:17:12;;;;;;;;;;;25.80;30.20;;;24.98;31.65;102003.75;12251345;19;19954;-85
2023/05/30 11:21:14;;;;;;;;;;;25.90;30.60;;;24.93;31.94;101995.31;12253789;19;19918;-84
2023/05/30 11:25:25;;;;;;;;;;;26.00;30.30;;;25.03;31.43;102014.81;12251742;19;20298;-83
2023/05/30 11:29:49;;;;;;;;;;;26.10;29.00;;;25.03;31.33;102004.13;12251783;19;19950;-85
2023/05/30 11:33:52;;;;;;;;;;;26.00;29.60;;;24.98;31.78;102000.22;12251797;19;19915;-84
2023/05/30 11:37:56;;;;;;;;;;;26.00;30.10;;;25.04;31.63;101994.28;12250768;19;19925;-85
2023/05/30 11:41:58;;;;;;;;;;;26.10;29.80;;;25.12;31.11;101986.38;12250738;19;19926;-85
2023/05/30 11:46:00;;;;;;;;;;;26.20;29.00;;;25.17;31.02;101987.63;12245510;19;19933;-84
2023/05/30 11:50:02;;;;;;;;;;;26.20;30.50;;;25.27;31.28;101986.72;12250930;19;19922;-84
2023/05/30 11:54:06;;;;;;;;;;;26.30;29.50;;;25.32;31.29;101971.91;12248565;19;19915;-85
2023/05/30 11:58:07;;;;;;;;;;;26.30;30.00;;;25.38;31.33;101970.47;12244131;19;19930;-84
2023/05/30 12:02:09;;;;;;;;;;;26.40;29.70;;;25.49;31.30;101980.97;12244712;19;20398;-85
2023/05/30 12:06:12;;;;;;;;;;;26.50;28.80;;;25.51;30.79;101967.41;12242550;19;19930;-84
2023/05/30 12:10:13;;;;;;;;;;;26.50;29.10;;;25.63;30.75;101978.72;12252706;19;19989;-84
2023/05/30 12:14:15;;;;;;;;;;;26.60;30.00;;;25.51;31.03;101948.69;12246845;19;19915;-85
2023/05/30 12:18:17;;;;;;;;;;;26.70;29.20;;;25.70;30.75;101974.44;12249054;19;20333;-84
2023/05/30 12:22:18;;;;;;;;;;;26.70;30.00;;;25.82;30.62;101982.09;12248952;19;19925;-85
2023/05/30 12:26:23;;;;;;;;;;;26.80;30.00;;;25.83;30.70;101991.81;12242517;19;19915;-84
2023/05/30 12:30:29;;;;;;;;;;;26.80;27.50;;;25.74;30.27;101981.19;12248190;19;19918;-84
2023/05/30 12:34:40;;;;;;;;;;;26.80;28.80;;;25.69;30.16;101975.47;12247083;19;19923;-84
2023/05/30 12:38:42;;;;;;;;;;;26.80;29.00;;;25.69;29.89;101978.97;12248325;19;20264;-84
2023/05/30 12:42:45;;;;;;;;;;;26.80;28.90;;;25.68;29.91;101966.59;12247994;19;19921;-84
2023/05/30 12:46:47;;;;;;;;;;;26.70;28.50;;;25.76;29.85;101973.81;12243206;19;19915;-85
2023/05/30 12:50:48;;;;;;;;;;;26.70;28.80;;;25.71;29.82;101960.09;12248343;19;20338;-85
2023/05/30 12:54:50;;;;;;;;;;;26.70;29.10;;;25.83;29.97;101986.47;12246321;19;19927;-85
2023/05/30 12:58:52;;;;;;;;;;;26.80;28.20;;;25.82;29.77;101986.63;12245518;19;19919;-84
2023/05/30 13:02:53;;;;;;;;;;;26.80;27.90;;;25.74;29.58;101976.69;12247595;19;19923;-85
2023/05/30 13:06:55;;;;;;;;;;;26.70;28.30;;;25.86;29.91;101993.34;12244940;19;19923;-85
2023/05/30 13:10:57;;;;;;;;;;;26.80;29.20;;;25.88;29.71;101972.63;12249051;19;19978;-85
2023/05/30 13:14:59;;;;;;;;;;;26.90;29.30;;;25.98;29.81;101970.72;12251077;19;19935;-85
2023/05/30 13:19:00;;;;;;;;;;;26.90;29.00;;;26.09;29.68;101968.78;12258102;19;19935;-85
2023/05/30 13:23:02;;;;;;;;;;;27.00;29.00;;;26.24;29.45;101977.91;12260902;19;19928;-84
2023/05/30 13:27:04;;;;;;;;;;;27.10;28.10;;;26.20;29.27;101972.03;12248232;19;19930;-85
2023/05/30 13:31:06;;;;;;;;;;;27.20;29.70;;;26.23;29.23;101970.91;12251137;19;19925;-84
2023/05/30 13:35:07;;;;;;;;;;;27.20;29.10;;;26.34;29.39;101973.31;12253214;19;19930;-85
2023/05/30 13:39:09;;;;;;;;;;;27.20;28.90;;;26.38;29.46;101972.00;12260171;19;19935;-85
2023/05/30 13:43:10;;;;;;;;;;;27.30;28.00;;;26.46;29.50;101964.03;12260664;19;19910;-84
2023/05/30 13:47:12;;;;;;;;;;;27.30;28.40;;;26.45;29.17;101958.81;12253838;19;19915;-85
2023/05/30 13:51:14;;;;;;;;;;;27.40;28.80;;;26.26;29.45;101919.69;12256876;19;19922;-84
2023/05/30 13:55:16;;;;;;;;;;;27.40;28.90;;;26.56;29.48;101955.03;12252387;19;19982;-85
2023/05/30 13:59:18;;;;;;;;;;;27.40;29.00;;;26.59;29.09;101954.72;12255389;19;20416;-85
2023/05/30 14:03:19;;;;;;;;;;;27.50;28.90;;;26.58;28.90;101951.22;12256090;19;19915;-85
2023/05/30 14:07:21;;;;;;;;;;;27.50;29.20;;;26.63;29.07;101956.94;12247529;19;19957;-85
2023/05/30 14:11:23;;;;;;;;;;;27.50;28.70;;;26.62;28.87;101949.03;12252438;19;20471;-85
2023/05/30 14:15:24;;;;;;;;;;;27.50;28.60;;;26.64;28.94;101953.22;12251860;19;19945;-85
2023/05/30 14:19:29;;;;;;;;;;;27.50;28.80;;;26.62;28.42;101962.44;12252797;19;19918;-85
2023/05/30 14:23:32;;;;;;;;;;;27.50;28.50;;;26.55;29.03;101942.66;12256178;19;19914;-85
2023/05/30 14:27:35;;;;;;;;;;;27.50;28.30;;;26.67;28.84;101949.41;12251102;19;19919;-84
2023/05/30 14:31:36;;;;;;;;;;;27.60;29.00;;;26.73;28.55;101953.28;12258710;19;20107;-85
2023/05/30 14:35:38;;;;;;;;;;;27.60;28.20;;;26.79;28.98;101953.47;12255530;19;19930;-85
2023/05/30 14:39:40;;;;;;;;;;;27.60;29.40;;;26.83;28.63;101956.69;12258335;19;20345;-85
2023/05/30 14:43:41;;;;;;;;;;;27.70;29.00;;;26.80;28.58;101965.88;12255555;19;19947;-84
2023/05/30 14:47:43;;;;;;;;;;;27.70;28.30;;;26.74;28.09;101969.22;12245789;19;19915;-85
2023/05/30 14:51:45;;;;;;;;;;;27.60;28.30;;;26.64;28.46;101965.81;12253959;19;19940;-84
2023/05/30 14:55:46;;;;;;;;;;;27.60;28.30;;;26.59;27.90;101952.88;12250765;19;19911;-85
2023/05/30 14:59:47;;;;;;;;;;;27.50;28.60;;;26.60;28.28;101957.25;12254374;19;20277;-86
2023/05/30 15:03:49;;;;;;;;;;;27.50;26.20;;;26.59;27.99;101957.41;12256594;19;19930;-85
2023/05/30 15:07:50;;;;;;;;;;;27.50;26.80;;;26.58;27.97;101953.06;12252217;19;19943;-85
2023/05/30 15:11:52;;;;;;;;;;;27.40;27.90;;;26.55;28.04;101953.38;12254787;19;19919;-84
2023/05/30 15:15:54;;;;;;;;;;;27.40;27.20;;;26.58;28.21;101956.56;12250677;19;20014;-85
2023/05/30 15:19:56;;;;;;;;;;;27.40;27.40;;;26.57;27.77;101952.22;12254485;19;19946;-86
2023/05/30 15:23:57;;;;;;;;;;;27.40;28.10;;;26.60;27.51;101951.91;12250040;19;19922;-84
2023/05/30 15:27:59;;;;;;;;;;;27.40;28.30;;;26.63;27.74;101956.94;12247189;19;19981;-85
2023/05/30 15:32:01;;;;;;;;;;;27.40;28.00;;;26.40;27.92;101918.25;12252657;19;19927;-85
2023/05/30 15:36:04;;;;;;;;;;;27.40;26.80;;;26.58;27.37;101950.38;12248931;19;19915;-87
2023/05/30 15:40:06;;;;;;;;;;;27.40;27.90;;;26.60;27.43;101961.75;12255752;19;19946;-84
2023/05/30 15:44:08;;;;;;;;;;;27.40;27.30;;;26.53;27.77;101947.31;12250837;19;19931;-85
2023/05/30 15:48:09;;;;;;;;;;;27.40;27.70;;;26.54;27.97;101951.69;12244981;19;19919;-83
2023/05/30 15:52:12;;;;;;;;;;;27.30;27.70;;;26.52;27.71;101949.19;12250586;19;19925;-84
2023/05/30 15:56:13;;;;;;;;;;;27.30;27.20;;;26.56;27.67;101955.03;12250265;19;20490;-85
2023/05/30 16:00:15;;;;;;;;;;;27.30;28.30;;;26.54;27.78;101955.19;12253974;19;19919;-84
2023/05/30 16:04:17;;;;;;;;;;;27.30;27.30;;;26.49;27.44;101950.31;12252002;19;19936;-84
2023/05/30 16:08:18;;;;;;;;;;;27.30;28.40;;;26.51;27.71;101958.19;12245657;19;19922;-84
2023/05/30 16:12:21;;;;;;;;;;;27.30;27.80;;;26.51;27.68;101966.22;12250849;19;19923;-84
2023/05/30 16:16:22;;;;;;;;;;;27.20;28.30;;;26.42;27.43;101953.78;12246986;19;20039;-84
2023/05/30 16:20:24;;;;;;;;;;;27.20;28.10;;;26.34;27.54;101967.94;12251704;19;20254;-84
2023/05/30 16:24:25;;;;;;;;;;;27.20;28.10;;;26.33;27.73;101960.91;12249304;19;19918;-83
2023/05/30 16:28:26;;;;;;;;;;;27.10;28.70;;;26.34;27.63;101962.59;12249106;19;19915;-84
2023/05/30 16:32:28;;;;;;;;;;;27.10;28.60;;;26.33;27.47;101960.91;12231229;19;20606;-84
2023/05/30 16:36:30;;;;;;;;;;;27.10;28.80;;;26.25;27.28;101959.03;12245242;19;20009;-83
2023/05/30 16:40:31;;;;;;;;;;;27.00;28.70;;;26.18;27.36;101962.50;12248139;19;19915;-84
2023/05/30 16:44:33;;;;;;;;;;;27.00;28.40;;;26.21;27.55;101967.53;12247091;19;20567;-84
2023/05/30 16:48:34;;;;;;;;;;;26.90;28.40;;;25.94;27.50;101928.34;12242452;19;19915;-84
2023/05/30 16:52:36;;;;;;;;;;;26.90;28.40;;;26.13;27.62;101975.50;12248297;19;19915;-83
2023/05/30 16:56:37;;;;;;;;;;;26.90;28.70;;;25.94;27.37;101960.47;12244783;19;19925;-84
2023/05/30 17:00:38;;;;;;;;;;;26.80;27.20;;;25.89;27.37;101963.59;12245936;19;19914;-83
2023/05/30 17:04:40;;;;;;;;;;;26.70;28.20;;;25.84;27.32;101971.25;12246293;19;19948;-84
2023/05/30 17:08:41;;;;;;;;;;;26.60;27.90;;;25.70;27.40;101958.41;12248358;19;19919;-84
2023/05/30 17:12:46;;;;;;;;;;;26.50;28.40;;;25.73;27.08;101976.81;12246538;19;19926;-84
2023/05/30 17:16:48;;;;;;;;;;;26.50;28.50;;;25.68;27.20;101971.06;12245313;19;19918;-84
2023/05/30 17:20:50;;;;;;;;;;;26.40;28.00;;;25.67;27.59;101974.75;12246255;19;19929;-84
2023/05/30 17:24:52;;;;;;;;;;;26.40;28.50;;;25.62;27.06;101983.25;12243986;19;20254;-84
2023/05/30 17:28:53;;;;;;;;;;;26.30;27.70;;;25.55;27.14;101992.88;12245205;19;19915;-85
2023/05/30 17:33:13;;;;;;;;;;;26.30;28.70;;;25.50;27.59;101998.69;12248638;19;19919;-84
2023/05/30 17:37:14;;;;;;;;;;;26.20;28.80;;;25.38;27.31;101986.50;12244240;19;19923;-84
2023/05/30 17:41:17;;;;;;;;;;;26.20;28.40;;;25.33;27.14;101996.81;12247880;19;19928;-85
2023/05/30 17:45:18;;;;;;;;;;;26.10;28.40;;;25.24;27.59;101993.22;12241924;19;19922;-84
2023/05/30 17:49:20;;;;;;;;;;;26.10;28.90;;;25.12;27.16;101989.88;12244992;19;19925;-84
2023/05/30 17:53:21;;;;;;;;;;;25.90;29.00;;;25.14;27.68;101990.56;12246282;19;19918;-85
2023/05/30 17:57:23;;;;;;;;;;;25.90;29.10;;;25.01;27.47;101976.72;12239271;19;20353;-85
2023/05/30 18:01:25;;;;;;;;;;;25.80;28.80;;;25.03;27.66;102003.28;12254278;19;19953;-84
2023/05/30 18:05:26;;;;;;;;;;;25.70;29.10;;;24.95;27.36;102004.00;12249737;19;19923;-84
2023/05/30 18:09:28;;;;;;;;;;;25.70;29.20;;;24.94;27.60;102000.50;12255100;19;19930;-84
2023/05/30 18:13:29;;;;;;;;;;;25.60;29.20;;;24.83;27.69;101989.19;12247715;19;19923;-83